Kampville Beach, Missouri
Current Conditions -  °F | °C
As of 6:54 AM on Thursday 27 Nov 2014 (Local Time) from KSET Reporting Station
Overcast Overcast  
Wind Chill: 20°   Ceiling: 1500
Heat Index: 30°   Visibility: 7mi
Dew Point: 25°   Wind: 14mph
Humidity: 82%   Direction: 330°NNW
Pressure: 30.43"   Gusts: NA
Location:  38.8615°N, 90.4548°W
Report Text: KSET 271254Z AUTO 33012KT 7SM OVC015 M01/M04 A3043 RMK AO2 SLP308 T10111039
Loading
Personal Weather Stations






























Interactive Weather Map New forecast layout! Learn more

10-Day Weather Forecast

Advertisements
Track Severe Weather on mobile